createdAt,value
2018-05-01T00:02:25.975Z,98379.97
2018-05-01T00:04:55.556Z,98388.16
2018-05-01T00:07:25.128Z,98387.13
2018-05-01T00:09:54.695Z,98394.17
2018-05-01T00:12:24.263Z,98383.53
2018-05-01T00:14:53.824Z,98392.33
2018-05-01T00:17:23.413Z,98401.06
2018-05-01T00:19:53.175Z,98398.38
2018-05-01T00:22:22.736Z,98397.27
2018-05-01T00:24:52.327Z,98396.47
2018-05-01T00:27:21.879Z,98400.62
2018-05-01T00:29:51.434Z,98393.68
2018-05-01T00:32:21.010Z,98399.66
2018-05-01T00:34:50.589Z,98403.34
2018-05-01T00:37:20.305Z,98404.31
2018-05-01T00:39:50.049Z,98401.17
2018-05-01T00:42:19.601Z,98402.89
2018-05-01T00:44:49.152Z,98414.29
2018-05-01T00:47:18.708Z,98411.22
2018-05-01T00:49:48.276Z,98410.90
2018-05-01T00:52:29.069Z,98416.41
2018-05-01T00:54:58.380Z,98416.09
2018-05-01T00:57:27.947Z,98414.78
2018-05-01T00:59:57.526Z,98422.41
2018-05-01T01:02:27.072Z,98415.80
2018-05-01T01:04:56.394Z,98423.71
2018-05-01T01:07:26.183Z,98420.84
2018-05-01T01:09:55.744Z,98435.66
2018-05-01T01:12:25.336Z,98429.36
2018-05-01T01:14:54.971Z,98438.37
2018-05-01T01:17:24.674Z,98422.20
2018-05-01T01:19:54.366Z,98425.70
2018-05-01T01:22:24.071Z,98424.95
2018-05-01T01:24:53.655Z,98425.70
2018-05-01T01:27:23.241Z,98419.30
2018-05-01T01:29:52.790Z,98427.64
2018-05-01T01:32:22.907Z,98426.97
2018-05-01T01:34:52.527Z,98426.27
2018-05-01T01:37:20.799Z,98431.28
2018-05-01T01:39:49.253Z,98424.75
2018-05-01T01:42:17.699Z,98426.00
2018-05-01T01:44:46.180Z,98432.59
2018-05-01T01:47:14.663Z,98443.13
2018-05-01T01:49:42.895Z,98436.23
2018-05-01T01:52:11.373Z,98437.35
2018-05-01T01:54:39.835Z,98435.03
2018-05-01T01:57:08.300Z,98439.10
2018-05-01T01:59:36.843Z,98432.50
2018-05-01T02:02:05.403Z,98444.21
2018-05-01T02:04:33.652Z,98439.17
2018-05-01T02:07:01.878Z,98452.43
2018-05-01T02:09:30.355Z,98453.53
2018-05-01T02:11:58.791Z,98449.97
2018-05-01T02:14:27.234Z,98450.34
2018-05-01T02:16:55.703Z,98461.70
2018-05-01T02:19:24.154Z,98460.94
2018-05-01T02:21:52.746Z,98470.47
2018-05-01T02:24:21.206Z,98471.69
2018-05-01T02:26:49.665Z,98473.88
2018-05-01T02:29:17.888Z,98466.30
2018-05-01T02:31:46.363Z,98469.84
2018-05-01T02:34:14.810Z,98470.66
2018-05-01T02:36:43.258Z,98474.02
2018-05-01T02:39:11.730Z,98479.38
2018-05-01T02:41:40.260Z,98483.33
2018-05-01T02:44:08.724Z,98487.69
2018-05-01T02:46:37.162Z,98490.14
2018-05-01T02:49:05.727Z,98483.73
2018-05-01T02:51:34.250Z,98483.09
2018-05-01T02:54:02.931Z,98478.89
2018-05-01T02:56:31.384Z,98471.98
2018-05-01T02:58:59.901Z,98471.41
2018-05-01T03:01:28.363Z,98470.63
2018-05-01T03:03:56.807Z,98473.77
2018-05-01T03:06:25.351Z,98474.09
2018-05-01T03:08:53.863Z,98474.32
2018-05-01T03:11:22.354Z,98486.76
2018-05-01T03:13:50.938Z,98485.30
2018-05-01T03:16:19.391Z,98481.50
2018-05-01T03:18:47.596Z,98483.05
2018-05-01T03:21:16.105Z,98484.67
2018-05-01T03:23:44.556Z,98489.91
2018-05-01T03:26:12.994Z,98494.27
2018-05-01T03:28:41.518Z,98501.76
2018-05-01T03:31:10.023Z,98499.53
2018-05-01T03:33:38.482Z,98500.41
2018-05-01T03:36:06.923Z,98495.87
2018-05-01T03:38:35.998Z,98492.33
2018-05-01T03:41:04.438Z,98497.00
2018-05-01T03:43:32.897Z,98498.59
2018-05-01T03:46:01.401Z,98485.53
2018-05-01T03:48:29.875Z,98483.55
2018-05-01T03:50:58.973Z,98476.95
2018-05-01T03:53:27.444Z,98482.03
2018-05-01T03:55:55.905Z,98488.06
2018-05-01T03:58:24.317Z,98508.96
2018-05-01T04:00:52.534Z,98501.44
2018-05-01T04:03:20.712Z,98506.20
2018-05-01T04:05:48.882Z,98517.75
2018-05-01T04:08:17.380Z,98528.75
2018-05-01T04:10:47.545Z,98512.58
2018-05-01T04:13:16.109Z,98514.77
2018-05-01T04:15:44.584Z,98530.84
2018-05-01T04:18:13.089Z,98517.70
2018-05-01T04:20:41.676Z,98525.58
2018-05-01T04:23:09.926Z,98536.59
2018-05-01T04:25:38.361Z,98537.17
2018-05-01T04:28:06.841Z,98541.80
2018-05-01T04:30:35.315Z,98540.84
2018-05-01T04:33:03.776Z,98549.16
2018-05-01T04:35:32.355Z,98554.30
2018-05-01T04:38:00.887Z,98558.95
2018-05-01T04:40:30.031Z,98557.86
2018-05-01T04:42:58.496Z,98562.08
2018-05-01T04:45:26.943Z,98563.44
2018-05-01T04:47:55.491Z,98580.18
2018-05-01T04:50:23.964Z,98575.13
2018-05-01T04:52:52.418Z,98575.80
2018-05-01T04:55:20.927Z,98578.34
2018-05-01T04:57:49.520Z,98591.27
2018-05-01T05:00:17.972Z,98592.69
2018-05-01T05:02:46.444Z,98593.38
2018-05-01T05:05:14.901Z,98608.19
2018-05-01T05:07:43.782Z,98614.34
2018-05-01T05:10:12.245Z,98618.22
2018-05-01T05:12:40.727Z,98627.48
2018-05-01T05:15:09.189Z,98632.79
2018-05-01T05:17:37.652Z,98626.70
2018-05-01T05:20:07.134Z,98622.02
2018-05-01T05:22:35.810Z,98634.43
2018-05-01T05:25:04.327Z,98647.89
2018-05-01T05:27:32.907Z,98639.97
2018-05-01T05:30:03.351Z,98627.56
2018-05-01T05:32:31.831Z,98638.13
2018-05-01T05:35:00.398Z,98636.47
2018-05-01T05:37:28.876Z,98634.97
2018-05-01T05:39:57.320Z,98648.53
2018-05-01T05:42:25.785Z,98653.09
2018-05-01T05:44:54.238Z,98648.56
2018-05-01T05:47:22.681Z,98645.23
2018-05-01T05:49:51.165Z,98666.79
2018-05-01T05:52:19.625Z,98670.63
2018-05-01T05:54:48.064Z,98689.00
2018-05-01T05:57:16.543Z,98694.54
2018-05-01T05:59:45.183Z,98687.36
2018-05-01T06:02:13.642Z,98700.99
2018-05-01T06:04:42.335Z,98709.66
2018-05-01T06:07:11.016Z,98704.80
2018-05-01T06:09:39.486Z,98712.30
2018-05-01T06:12:07.955Z,98710.27
2018-05-01T06:14:36.430Z,98719.27
2018-05-01T06:17:04.904Z,98716.28
2018-05-01T06:19:33.349Z,98706.48
2018-05-01T06:22:02.001Z,98712.42
2018-05-01T06:24:30.622Z,98709.75
2018-05-01T06:26:59.225Z,98715.48
2018-05-01T06:29:28.563Z,98711.62
2018-05-01T06:31:57.074Z,98714.23
2018-05-01T06:34:25.526Z,98725.06
2018-05-01T06:36:53.998Z,98724.78
2018-05-01T06:39:22.552Z,98721.58
2018-05-01T06:41:51.039Z,98705.61
2018-05-01T06:46:53.129Z,98720.22
2018-05-01T06:49:21.591Z,98726.02
2018-05-01T06:51:50.043Z,98742.20
2018-05-01T06:54:18.531Z,98728.77
2018-05-01T06:56:46.978Z,98738.30
2018-05-01T06:59:15.470Z,98736.53
2018-05-01T07:01:43.959Z,98753.22
2018-05-01T07:04:12.537Z,98765.17
2018-05-01T07:06:40.780Z,98758.09
2018-05-01T07:09:09.255Z,98760.81
2018-05-01T07:14:12.469Z,98752.83
2018-05-01T07:16:40.920Z,98753.63
2018-05-01T07:19:09.431Z,98761.25
2018-05-01T07:21:38.055Z,98762.09
2018-05-01T07:24:06.591Z,98760.02
2018-05-01T07:26:35.066Z,98751.42
2018-05-01T07:29:03.509Z,98756.66
2018-05-01T07:31:31.950Z,98761.98
2018-05-01T07:34:00.471Z,98762.85
2018-05-01T07:36:28.935Z,98764.38
2018-05-01T07:38:57.404Z,98766.44
2018-05-01T07:41:25.983Z,98772.30
2018-05-01T07:43:54.578Z,98777.02
2018-05-01T07:46:23.035Z,98779.90
2018-05-01T07:48:51.340Z,98786.30
2018-05-01T07:51:19.827Z,98786.46
2018-05-01T07:53:48.330Z,98782.44
2018-05-01T07:56:16.803Z,98781.87
2018-05-01T07:58:45.241Z,98782.78
2018-05-01T08:01:13.726Z,98779.91
2018-05-01T08:03:42.190Z,98781.73
2018-05-01T08:06:10.464Z,98781.25
2018-05-01T08:08:41.934Z,98784.00
2018-05-01T08:11:10.405Z,98784.67
2018-05-01T08:13:38.894Z,98798.52
2018-05-01T08:16:07.383Z,98797.37
2018-05-01T08:18:35.886Z,98806.34
2018-05-01T08:21:04.516Z,98806.27
2018-05-01T08:23:32.972Z,98795.82
2018-05-01T08:26:01.429Z,98799.77
2018-05-01T08:28:29.884Z,98807.41
2018-05-01T08:30:58.355Z,98805.50
2018-05-01T08:33:26.828Z,98804.08
2018-05-01T08:35:55.269Z,98812.63
2018-05-01T08:38:23.731Z,98818.64
2018-05-01T08:40:52.887Z,98815.63
2018-05-01T08:43:21.344Z,98820.32
2018-05-01T08:45:49.810Z,98820.94
2018-05-01T08:48:18.291Z,98836.67
2018-05-01T08:50:46.726Z,98825.63
2018-05-01T08:53:15.182Z,98821.17
2018-05-01T08:55:43.722Z,98832.27
2018-05-01T08:58:12.338Z,98835.63
2018-05-01T09:00:40.923Z,98828.03
2018-05-01T09:03:09.412Z,98828.94
2018-05-01T09:05:37.868Z,98827.67
2018-05-01T09:08:06.315Z,98822.23
2018-05-01T09:10:34.786Z,98827.55
2018-05-01T09:13:03.235Z,98825.75
2018-05-01T09:15:31.685Z,98819.48
2018-05-01T09:18:00.198Z,98815.70
2018-05-01T09:20:28.627Z,98805.94
2018-05-01T09:22:57.087Z,98801.84
2018-05-01T09:25:25.617Z,98804.55
2018-05-01T09:27:54.228Z,98793.83
2018-05-01T09:30:22.778Z,98790.59
2018-05-01T09:32:51.246Z,98782.58
2018-05-01T09:35:19.673Z,98783.88
2018-05-01T09:37:48.282Z,98791.61
2018-05-01T09:40:16.757Z,98790.57
2018-05-01T09:42:45.276Z,98793.58
2018-05-01T09:45:13.779Z,98800.12
2018-05-01T09:47:42.323Z,98803.20
2018-05-01T09:50:10.898Z,98798.15
2018-05-01T09:52:40.527Z,98797.77
2018-05-01T09:55:10.136Z,98796.53
2018-05-01T09:57:39.689Z,98796.27
2018-05-01T10:00:09.034Z,98797.18
2018-05-01T10:02:38.368Z,98802.37
2018-05-01T10:05:07.927Z,98798.59
2018-05-01T10:07:37.500Z,98789.92
2018-05-01T10:10:07.048Z,98782.52
2018-05-01T10:12:36.612Z,98790.04
2018-05-01T10:15:06.183Z,98782.72
2018-05-01T10:17:35.757Z,98775.64
2018-05-01T10:20:05.303Z,98776.34
2018-05-01T10:22:34.864Z,98775.47
2018-05-01T10:25:04.267Z,98776.94
2018-05-01T10:27:33.612Z,98778.44
2018-05-01T10:30:02.962Z,98777.39
2018-05-01T10:32:32.515Z,98773.41
2018-05-01T10:35:02.178Z,98771.92
2018-05-01T10:37:31.723Z,98776.91
2018-05-01T10:40:01.291Z,98768.25
2018-05-01T10:42:30.883Z,98762.95
2018-05-01T10:45:00.664Z,98763.42
2018-05-01T10:47:30.230Z,98768.30
2018-05-01T10:49:59.803Z,98765.52
2018-05-01T10:52:29.142Z,98762.58
2018-05-01T10:54:58.719Z,98768.69
2018-05-01T10:57:28.289Z,98758.91
2018-05-01T10:59:57.863Z,98762.16
2018-05-01T11:02:27.449Z,98764.75
2018-05-01T11:04:57.034Z,98763.73
2018-05-01T11:07:26.600Z,98771.83
2018-05-01T11:09:56.177Z,98771.49
2018-05-01T11:12:25.536Z,98777.00
2018-05-01T11:14:55.111Z,98778.60
2018-05-01T11:17:24.737Z,98778.73
2018-05-01T11:19:54.301Z,98781.34
2018-05-01T11:22:23.893Z,98787.89
2018-05-01T11:24:53.483Z,98790.41
2018-05-01T11:27:23.055Z,98793.44
2018-05-01T11:29:52.613Z,98792.44
2018-05-01T11:32:22.194Z,98794.78
2018-05-01T11:34:52.333Z,98795.41
2018-05-01T11:37:21.894Z,98791.44
2018-05-01T11:39:51.479Z,98801.47
2018-05-01T11:42:21.043Z,98812.50
2018-05-01T11:44:50.650Z,98803.44
2018-05-01T11:47:20.363Z,98807.25
2018-05-01T11:49:49.947Z,98803.42
2018-05-01T11:52:19.503Z,98804.95
2018-05-01T11:54:49.065Z,98808.13
2018-05-01T11:57:18.633Z,98804.71
2018-05-01T11:59:48.232Z,98814.91
2018-05-01T12:02:17.800Z,98809.53
2018-05-01T12:04:47.394Z,98793.88
2018-05-01T12:07:16.973Z,98792.09
2018-05-01T12:09:46.668Z,98786.80
2018-05-01T12:12:16.235Z,98788.30
2018-05-01T12:14:45.795Z,98785.73
2018-05-01T12:17:15.366Z,98786.86
2018-05-01T12:19:44.933Z,98778.67
2018-05-01T12:22:14.498Z,98786.34
2018-05-01T12:24:43.716Z,98789.64
2018-05-01T12:27:13.278Z,98785.41
2018-05-01T12:29:42.861Z,98788.46
2018-05-01T12:32:12.452Z,98794.00
2018-05-01T12:34:42.018Z,98786.91
2018-05-01T12:37:11.811Z,98801.55
2018-05-01T12:39:41.465Z,98789.38
2018-05-01T12:42:11.056Z,98783.17
2018-05-01T12:44:40.418Z,98790.23
2018-05-01T12:47:09.991Z,98795.47
2018-05-01T12:49:39.589Z,98788.98
2018-05-01T12:52:09.150Z,98792.06
2018-05-01T12:54:38.739Z,98793.92
2018-05-01T12:57:08.303Z,98792.98
2018-05-01T12:59:40.746Z,98791.61
2018-05-01T13:02:10.466Z,98798.45
2018-05-01T13:04:40.031Z,98791.38
2018-05-01T13:07:09.591Z,98788.48
2018-05-01T13:09:39.317Z,98792.83
2018-05-01T13:12:08.867Z,98790.80
2018-05-01T13:14:38.413Z,98785.91
2018-05-01T13:17:08.006Z,98778.03
2018-05-01T13:19:37.556Z,98777.09
2018-05-01T13:22:06.900Z,98774.05
2018-05-01T13:24:35.999Z,98775.47
2018-05-01T13:27:05.340Z,98773.28
2018-05-01T13:29:34.935Z,98773.42
2018-05-01T13:32:04.511Z,98784.75
2018-05-01T13:34:34.199Z,98780.17
2018-05-01T13:37:03.778Z,98768.69
2018-05-01T13:39:33.415Z,98768.70
2018-05-01T13:42:02.990Z,98769.13
2018-05-01T13:44:32.629Z,98769.58
2018-05-01T13:47:02.240Z,98783.30
2018-05-01T13:49:31.827Z,98777.23
2018-05-01T13:52:01.167Z,98772.64
2018-05-01T13:54:30.736Z,98768.23
2018-05-01T13:57:00.335Z,98772.86
2018-05-01T13:59:29.907Z,98772.98
2018-05-01T14:01:59.466Z,98762.61
2018-05-01T14:04:29.075Z,98764.22
2018-05-01T14:06:58.816Z,98766.48
2018-05-01T14:09:28.401Z,98759.55
2018-05-01T14:11:57.966Z,98754.27
2018-05-01T14:14:27.512Z,98759.70
2018-05-01T14:16:57.057Z,98751.04
2018-05-01T14:19:26.822Z,98750.33
2018-05-01T14:21:56.393Z,98752.13
2018-05-01T14:24:25.959Z,98742.27
2018-05-01T14:26:55.653Z,98744.94
2018-05-01T14:29:25.216Z,98745.75
2018-05-01T14:31:54.779Z,98748.59
2018-05-01T14:34:24.345Z,98750.23
2018-05-01T14:36:53.911Z,98750.08
2018-05-01T14:39:23.602Z,98742.53
2018-05-01T14:41:52.959Z,98741.30
2018-05-01T14:44:22.567Z,98731.92
2018-05-01T14:46:52.134Z,98725.81
2018-05-01T14:49:21.851Z,98734.29
2018-05-01T14:51:51.423Z,98726.06
2018-05-01T14:54:21.002Z,98733.44
2018-05-01T14:56:50.651Z,98733.14
2018-05-01T14:59:19.982Z,98730.66
2018-05-01T15:01:49.630Z,98731.13
2018-05-01T15:04:19.318Z,98732.15
2018-05-01T15:06:48.870Z,98733.81
2018-05-01T15:09:18.502Z,98725.48
2018-05-01T15:11:48.070Z,98738.75
2018-05-01T15:14:19.614Z,98725.88
2018-05-01T15:16:49.353Z,98733.38
2018-05-01T15:19:19.301Z,98721.75
2018-05-01T15:21:49.033Z,98725.12
2018-05-01T15:24:18.594Z,98719.58
2018-05-01T15:26:48.184Z,98712.52
2018-05-01T15:29:18.263Z,98717.95
2018-05-01T15:31:48.004Z,98719.23
2018-05-01T15:34:17.576Z,98711.45
2018-05-01T15:36:47.120Z,98711.55
2018-05-01T15:39:16.697Z,98720.33
2018-05-01T15:41:46.813Z,98718.86
2018-05-01T15:44:16.399Z,98715.73
2018-05-01T15:46:45.978Z,98722.25
2018-05-01T15:49:15.575Z,98722.69
2018-05-01T15:51:45.301Z,98721.54
2018-05-01T15:54:15.774Z,98714.51
2018-05-01T15:56:45.453Z,98718.61
2018-05-01T15:59:15.009Z,98717.53
2018-05-01T16:01:44.647Z,98721.41
2018-05-01T16:04:14.259Z,98708.48
2018-05-01T16:06:43.631Z,98712.47
2018-05-01T16:09:13.421Z,98704.86
2018-05-01T16:11:42.968Z,98704.12
2018-05-01T16:14:12.680Z,98698.23
2018-05-01T16:16:42.392Z,98692.94
2018-05-01T16:19:11.786Z,98695.91
2018-05-01T16:21:40.792Z,98685.95
2018-05-01T16:24:10.399Z,98684.34
2018-05-01T16:26:40.035Z,98676.24
2018-05-01T16:29:09.623Z,98671.46
2018-05-01T16:31:39.164Z,98670.02
2018-05-01T16:34:08.829Z,98672.08
2018-05-01T16:36:38.484Z,98663.84
2018-05-01T16:39:08.107Z,98663.67
2018-05-01T16:41:37.679Z,98663.77
2018-05-01T16:44:07.220Z,98659.95
2018-05-01T16:46:36.827Z,98658.33
2018-05-01T16:49:06.414Z,98656.65
2018-05-01T16:51:36.027Z,98660.75
2018-05-01T16:54:05.585Z,98661.86
2018-05-01T16:56:35.206Z,98662.45
2018-05-01T16:59:04.763Z,98659.20
2018-05-01T17:01:34.314Z,98664.15
2018-05-01T17:04:03.655Z,98668.32
2018-05-01T17:06:33.273Z,98670.77
2018-05-01T17:09:02.836Z,98668.24
2018-05-01T17:11:32.277Z,98669.25
2018-05-01T17:14:01.850Z,98671.67
2018-05-01T17:16:31.536Z,98670.71
2018-05-01T17:19:01.115Z,98670.23
2018-05-01T17:21:30.691Z,98672.10
2018-05-01T17:24:00.262Z,98671.52
2018-05-01T17:26:29.903Z,98670.92
2018-05-01T17:28:59.478Z,98676.24
2018-05-01T17:31:29.064Z,98682.31
2018-05-01T17:33:58.732Z,98689.13
2018-05-01T17:36:28.303Z,98684.41
2018-05-01T17:38:57.922Z,98692.43
2018-05-01T17:41:27.480Z,98695.19
2018-05-01T17:43:57.043Z,98696.43
2018-05-01T17:46:26.691Z,98700.20
2018-05-01T17:48:56.258Z,98698.76
2018-05-01T17:51:25.815Z,98699.28
2018-05-01T17:53:55.390Z,98692.80
2018-05-01T17:56:24.961Z,98703.83
2018-05-01T17:58:54.517Z,98703.83
2018-05-01T18:01:24.107Z,98713.35
2018-05-01T18:03:53.662Z,98713.38
2018-05-01T18:06:23.216Z,98714.91
2018-05-01T18:08:52.775Z,98717.97
2018-05-01T18:11:22.348Z,98716.03
2018-05-01T18:13:52.235Z,98724.52
2018-05-01T18:16:21.939Z,98717.02
2018-05-01T18:18:51.539Z,98718.95
2018-05-01T18:21:21.111Z,98720.27
2018-05-01T18:23:50.975Z,98721.84
2018-05-01T18:26:20.539Z,98716.95
2018-05-01T18:28:50.128Z,98717.80
2018-05-01T18:31:19.695Z,98721.77
2018-05-01T18:33:49.612Z,98724.84
2018-05-01T18:36:19.196Z,98725.56
2018-05-01T18:38:48.927Z,98726.33
2018-05-01T18:41:18.491Z,98723.11
2018-05-01T18:43:48.045Z,98720.52
2018-05-01T18:46:17.611Z,98732.86
2018-05-01T18:48:46.970Z,98735.29
2018-05-01T18:51:16.536Z,98737.87
2018-05-01T18:53:46.230Z,98741.80
2018-05-01T18:56:16.051Z,98740.84
2018-05-01T18:58:45.644Z,98736.61
2018-05-01T19:01:15.229Z,98736.61
2018-05-01T19:03:44.828Z,98740.78
2018-05-01T19:06:14.136Z,98747.32
2018-05-01T19:08:44.506Z,98751.19
2018-05-01T19:11:14.139Z,98751.08
2018-05-01T19:13:44.403Z,98761.00
2018-05-01T19:16:14.450Z,98764.23
2018-05-01T19:18:44.084Z,98756.78
2018-05-01T19:21:13.689Z,98763.88
2018-05-01T19:23:43.270Z,98766.39
2018-05-01T19:26:12.861Z,98771.11
2018-05-01T19:28:42.670Z,98775.41
2018-05-01T19:31:12.441Z,98771.34
2018-05-01T19:33:42.168Z,98763.08
2018-05-01T19:36:11.771Z,98757.13
2018-05-01T19:38:41.332Z,98756.88
2018-05-01T19:41:10.913Z,98766.06
2018-05-01T19:43:40.504Z,98768.24
2018-05-01T19:46:10.308Z,98773.14
2018-05-01T19:48:39.927Z,98785.77
2018-05-01T19:51:09.719Z,98776.88
2018-05-01T19:53:39.440Z,98775.03
2018-05-01T19:56:09.017Z,98781.25
2018-05-01T19:58:38.579Z,98778.66
2018-05-01T20:01:13.750Z,98778.11
2018-05-01T20:03:43.327Z,98775.66
2018-05-01T20:06:12.910Z,98782.44
2018-05-01T20:08:42.479Z,98793.66
2018-05-01T20:11:12.074Z,98785.38
2018-05-01T20:13:41.673Z,98777.12
2018-05-01T20:16:11.231Z,98777.86
2018-05-01T20:18:40.880Z,98784.84
2018-05-01T20:21:10.446Z,98780.66
2018-05-01T20:23:39.998Z,98780.02
2018-05-01T20:26:09.555Z,98784.48
2018-05-01T20:28:39.120Z,98784.84
2018-05-01T20:31:08.667Z,98784.74
2018-05-01T20:33:38.107Z,98780.02
2018-05-01T20:36:07.361Z,98784.51
2018-05-01T20:38:36.930Z,98780.97
2018-05-01T20:41:06.517Z,98777.75
2018-05-01T20:43:36.097Z,98781.87
2018-05-01T20:46:05.654Z,98777.44
2018-05-01T20:48:35.226Z,98778.25
2018-05-01T20:51:07.773Z,98773.54
2018-05-01T20:53:37.375Z,98771.21
2018-05-01T20:56:06.944Z,98777.38
2018-05-01T20:58:36.684Z,98783.11
2018-05-01T21:01:06.255Z,98779.82
2018-05-01T21:03:35.828Z,98782.20
2018-05-01T21:06:05.375Z,98778.45
2018-05-01T21:08:34.967Z,98784.94
2018-05-01T21:11:04.302Z,98785.64
2018-05-01T21:13:33.866Z,98796.10
2018-05-01T21:16:03.439Z,98807.04
2018-05-01T21:18:32.981Z,98810.70
2018-05-01T21:21:02.548Z,98812.22
2018-05-01T21:23:31.881Z,98813.12
2018-05-01T21:26:01.575Z,98811.34
2018-05-01T21:28:31.131Z,98806.69
2018-05-01T21:31:00.727Z,98815.02
2018-05-01T21:33:30.396Z,98813.73
2018-05-01T21:35:59.952Z,98816.23
2018-05-01T21:38:29.545Z,98816.92
2018-05-01T21:40:59.111Z,98817.33
2018-05-01T21:43:28.657Z,98816.08
2018-05-01T21:45:58.392Z,98820.80
2018-05-01T21:48:27.939Z,98823.83
2018-05-01T21:50:57.593Z,98829.77
2018-05-01T21:53:27.162Z,98831.59
2018-05-01T21:55:56.941Z,98826.13
2018-05-01T21:58:26.516Z,98824.09
2018-05-01T22:00:55.743Z,98834.41
2018-05-01T22:03:25.308Z,98843.88
2018-05-01T22:05:54.911Z,98843.34
2018-05-01T22:08:24.752Z,98843.48
2018-05-01T22:10:54.494Z,98843.80
2018-05-01T22:13:24.052Z,98841.62
2018-05-01T22:15:53.616Z,98839.09
2018-05-01T22:18:23.191Z,98842.63
2018-05-01T22:20:52.799Z,98852.47
2018-05-01T22:23:22.371Z,98851.24
2018-05-01T22:25:52.035Z,98855.82
2018-05-01T22:28:21.615Z,98858.84
2018-05-01T22:30:51.163Z,98867.37
2018-05-01T22:33:20.719Z,98873.44
2018-05-01T22:35:50.176Z,98874.38
2018-05-01T22:38:19.747Z,98873.83
2018-05-01T22:40:49.321Z,98880.48
2018-05-01T22:43:18.884Z,98870.43
2018-05-01T22:45:48.440Z,98870.95
2018-05-01T22:48:18.020Z,98871.41
2018-05-01T22:50:47.566Z,98879.31
2018-05-01T22:53:17.132Z,98874.40
2018-05-01T22:55:46.758Z,98870.61
2018-05-01T22:58:16.314Z,98873.75
2018-05-01T23:00:45.863Z,98864.20
2018-05-01T23:03:15.446Z,98864.20
2018-05-01T23:05:45.017Z,98873.84
2018-05-01T23:08:14.659Z,98870.42
2018-05-01T23:10:44.223Z,98867.45
2018-05-01T23:13:13.767Z,98870.95
2018-05-01T23:15:43.359Z,98871.30
2018-05-01T23:18:12.914Z,98870.81
2018-05-01T23:20:42.479Z,98865.48
2018-05-01T23:23:12.048Z,98861.61
2018-05-01T23:25:41.865Z,98864.75
2018-05-01T23:28:11.427Z,98871.46
2018-05-01T23:30:40.981Z,98870.38
2018-05-01T23:33:10.551Z,98867.19
2018-05-01T23:35:40.106Z,98868.80
2018-05-01T23:38:09.674Z,98866.31
2018-05-01T23:40:39.232Z,98870.12
2018-05-01T23:43:08.786Z,98866.17
2018-05-01T23:45:38.344Z,98859.70
2018-05-01T23:48:07.912Z,98860.16
2018-05-01T23:50:37.459Z,98861.73
2018-05-01T23:53:07.029Z,98858.55
2018-05-01T23:55:36.591Z,98857.58
2018-05-01T23:58:06.167Z,98856.52
